Time;durP1;ratioP1;P1;durP2;ratioP2;P2;SDS_P1;SDS_P2;PMS_P1;PMS_P2;Temp;Humidity;BMP_temperature;BMP_pressure;BME280_temperature;BME280_humidity;BME280_pressure;Samples;Min_cycle;Max_cycle;Signal;HPM_P1;HPM_P2
2024/02/04 00:02:13;;;;;;;3.22;2.20;;;;;;;;;;5086837;28;20016;-77
2024/02/04 00:04:40;;;;;;;3.72;2.95;;;;;;;;;;5085847;28;20507;-77
2024/02/04 00:07:06;;;;;;;2.53;2.30;;;;;;;;;;5088004;28;20555;-79
2024/02/04 00:09:32;;;;;;;4.25;2.97;;;;;;;;;;5081083;28;20020;-78
2024/02/04 00:12:03;;;;;;;2.80;2.15;;;;;;;;;;5083739;28;20050;-77
2024/02/04 00:14:29;;;;;;;3.25;2.47;;;;;;;;;;5090481;28;20048;-77
2024/02/04 00:16:55;;;;;;;4.03;1.98;;;;;;;;;;5088873;28;20032;-78
2024/02/04 00:19:24;;;;;;;3.47;1.83;;;;;;;;;;5087915;28;20044;-80
2024/02/04 00:21:51;;;;;;;4.25;2.83;;;;;;;;;;5082613;28;20071;-79
2024/02/04 00:24:18;;;;;;;5.22;2.95;;;;;;;;;;5082724;28;20027;-77
2024/02/04 00:26:44;;;;;;;2.58;2.28;;;;;;;;;;5082306;28;20028;-79
2024/02/04 00:29:10;;;;;;;3.72;2.70;;;;;;;;;;5072835;28;20035;-79
2024/02/04 00:31:36;;;;;;;3.42;2.58;;;;;;;;;;5078922;28;20135;-78
2024/02/04 00:34:03;;;;;;;2.72;2.22;;;;;;;;;;5082656;28;20020;-78
2024/02/04 00:36:29;;;;;;;2.97;2.10;;;;;;;;;;5081507;28;20027;-77
2024/02/04 00:38:55;;;;;;;3.00;2.70;;;;;;;;;;5082505;28;20031;-78
2024/02/04 00:41:21;;;;;;;3.80;2.33;;;;;;;;;;5081716;28;20019;-77
2024/02/04 00:43:47;;;;;;;3.08;2.15;;;;;;;;;;5080275;28;20025;-79
2024/02/04 00:46:14;;;;;;;3.47;2.85;;;;;;;;;;5080170;28;20036;-77
2024/02/04 00:48:43;;;;;;;2.50;2.30;;;;;;;;;;5072134;28;20039;-78
2024/02/04 00:51:09;;;;;;;2.60;2.08;;;;;;;;;;5080393;28;20028;-78
2024/02/04 00:53:35;;;;;;;3.03;2.55;;;;;;;;;;5084813;28;20025;-78
2024/02/04 00:56:02;;;;;;;4.20;2.50;;;;;;;;;;5090919;28;20035;-77
2024/02/04 00:58:28;;;;;;;3.28;2.45;;;;;;;;;;5078116;28;20021;-77
2024/02/04 01:00:54;;;;;;;4.25;2.15;;;;;;;;;;5068223;28;20039;-77
2024/02/04 01:03:24;;;;;;;3.00;2.72;;;;;;;;;;5089134;28;20043;-80
2024/02/04 01:05:50;;;;;;;2.58;2.17;;;;;;;;;;5089111;28;20025;-78
2024/02/04 01:08:16;;;;;;;2.25;1.98;;;;;;;;;;5087408;28;20036;-79
2024/02/04 01:10:42;;;;;;;2.95;2.65;;;;;;;;;;5090453;28;20028;-78
2024/02/04 01:13:08;;;;;;;3.20;2.90;;;;;;;;;;5101044;28;20534;-79
2024/02/04 01:15:34;;;;;;;3.35;2.70;;;;;;;;;;5091756;28;20039;-78
2024/02/04 01:18:00;;;;;;;4.47;3.35;;;;;;;;;;5095692;28;20020;-78
2024/02/04 01:20:27;;;;;;;3.28;2.95;;;;;;;;;;5096648;28;20043;-78
2024/02/04 01:22:53;;;;;;;5.13;3.75;;;;;;;;;;5083289;28;20037;-79
2024/02/04 01:25:19;;;;;;;3.85;3.17;;;;;;;;;;5088521;28;20111;-78
2024/02/04 01:27:45;;;;;;;3.13;2.83;;;;;;;;;;5084692;28;20063;-78
2024/02/04 01:30:11;;;;;;;3.75;3.30;;;;;;;;;;5087524;28;20021;-78
2024/02/04 01:32:37;;;;;;;3.90;3.50;;;;;;;;;;5092948;28;20028;-78
2024/02/04 01:35:04;;;;;;;4.05;3.10;;;;;;;;;;5095414;28;20035;-77
2024/02/04 01:37:30;;;;;;;5.07;3.72;;;;;;;;;;5096443;28;20025;-77
2024/02/04 01:39:56;;;;;;;4.93;4.28;;;;;;;;;;5087725;28;20043;-77
2024/02/04 01:42:22;;;;;;;4.90;3.58;;;;;;;;;;5103012;27;20032;-78
2024/02/04 01:44:48;;;;;;;4.10;3.40;;;;;;;;;;5097854;28;20021;-76
2024/02/04 01:47:14;;;;;;;4.05;2.90;;;;;;;;;;5097523;28;20027;-77
2024/02/04 01:49:40;;;;;;;4.32;3.13;;;;;;;;;;5083555;28;20017;-79
2024/02/04 01:52:08;;;;;;;4.20;3.10;;;;;;;;;;5085932;28;20040;-77
2024/02/04 01:54:34;;;;;;;4.30;3.15;;;;;;;;;;5090622;28;20043;-77
2024/02/04 01:57:03;;;;;;;5.32;3.92;;;;;;;;;;5090709;28;20024;-77
2024/02/04 01:59:30;;;;;;;4.30;3.58;;;;;;;;;;5091301;28;20054;-78
2024/02/04 02:02:06;;;;;;;5.68;3.42;;;;;;;;;;5091384;28;20085;-77
2024/02/04 02:04:32;;;;;;;3.75;3.15;;;;;;;;;;5090834;28;20028;-76
2024/02/04 02:07:00;;;;;;;3.33;3.00;;;;;;;;;;5088871;28;20021;-77
2024/02/04 02:09:26;;;;;;;3.38;3.08;;;;;;;;;;5089951;28;20104;-76
2024/02/04 02:11:58;;;;;;;4.13;3.22;;;;;;;;;;5087230;28;20039;-77
2024/02/04 02:14:27;;;;;;;3.33;3.00;;;;;;;;;;5081581;28;20032;-79
2024/02/04 02:16:54;;;;;;;3.20;2.65;;;;;;;;;;5081767;28;20059;-77
2024/02/04 02:19:30;;;;;;;3.08;2.58;;;;;;;;;;5081272;28;20031;-79
2024/02/04 02:21:56;;;;;;;3.60;3.17;;;;;;;;;;5081631;28;20020;-79
2024/02/04 02:24:25;;;;;;;4.28;3.10;;;;;;;;;;5075222;28;20064;-77
2024/02/04 02:26:51;;;;;;;3.28;2.65;;;;;;;;;;5071670;28;20035;-78
2024/02/04 02:29:17;;;;;;;4.35;3.53;;;;;;;;;;5083528;28;20028;-78
2024/02/04 02:31:44;;;;;;;4.93;3.50;;;;;;;;;;5067135;28;20347;-79
2024/02/04 02:34:10;;;;;;;4.78;3.10;;;;;;;;;;5079238;28;20028;-78
2024/02/04 02:36:46;;;;;;;3.50;3.20;;;;;;;;;;5087052;28;20025;-78
2024/02/04 02:39:16;;;;;;;3.45;2.70;;;;;;;;;;5076919;28;20020;-77
2024/02/04 02:41:43;;;;;;;3.53;2.80;;;;;;;;;;5089615;28;20021;-77
2024/02/04 02:44:09;;;;;;;4.07;2.92;;;;;;;;;;5088717;28;20036;-78
2024/02/04 02:46:36;;;;;;;3.58;3.00;;;;;;;;;;5085878;28;20021;-79
2024/02/04 02:49:03;;;;;;;4.40;2.60;;;;;;;;;;5089088;28;20088;-77
2024/02/04 02:51:29;;;;;;;3.30;2.70;;;;;;;;;;5091988;28;20364;-76
2024/02/04 02:53:55;;;;;;;4.85;3.58;;;;;;;;;;5077258;28;20024;-76
2024/02/04 02:56:21;;;;;;;4.35;3.10;;;;;;;;;;5090631;28;20016;-77
2024/02/04 02:58:47;;;;;;;4.40;2.80;;;;;;;;;;5091694;28;20048;-77
2024/02/04 03:01:13;;;;;;;3.45;2.83;;;;;;;;;;5091831;28;20206;-77
2024/02/04 03:03:39;;;;;;;3.83;2.70;;;;;;;;;;5093856;28;20048;-77
2024/02/04 03:06:06;;;;;;;3.72;2.60;;;;;;;;;;5093706;28;20033;-77
2024/02/04 03:08:32;;;;;;;2.53;2.22;;;;;;;;;;5085353;28;20031;-77
2024/02/04 03:10:58;;;;;;;2.80;2.40;;;;;;;;;;5087837;28;20059;-77
2024/02/04 03:13:24;;;;;;;4.00;2.53;;;;;;;;;;5079235;28;20033;-78
2024/02/04 03:15:50;;;;;;;3.35;2.85;;;;;;;;;;5074206;28;20050;-77
2024/02/04 03:18:16;;;;;;;3.40;2.50;;;;;;;;;;5084769;28;20013;-78
2024/02/04 03:20:42;;;;;;;3.88;2.67;;;;;;;;;;5094684;28;20040;-77
2024/02/04 03:23:08;;;;;;;3.47;2.30;;;;;;;;;;5094310;28;20020;-76
2024/02/04 03:25:35;;;;;;;2.90;2.38;;;;;;;;;;5089270;28;20008;-77
2024/02/04 03:28:01;;;;;;;2.85;2.20;;;;;;;;;;5081647;28;20032;-77
2024/02/04 03:30:27;;;;;;;3.25;2.17;;;;;;;;;;5086339;28;20538;-77
2024/02/04 03:32:53;;;;;;;3.45;2.63;;;;;;;;;;5090147;28;20135;-77
2024/02/04 03:35:19;;;;;;;3.13;2.72;;;;;;;;;;5074296;28;20020;-77
2024/02/04 03:37:45;;;;;;;2.83;2.55;;;;;;;;;;5077061;28;20024;-77
2024/02/04 03:40:11;;;;;;;3.92;2.60;;;;;;;;;;5070105;28;20035;-77
2024/02/04 03:42:38;;;;;;;2.50;2.28;;;;;;;;;;5088946;28;20020;-77
2024/02/04 03:45:04;;;;;;;3.05;2.40;;;;;;;;;;5081296;28;20427;-78
2024/02/04 03:47:30;;;;;;;2.67;2.25;;;;;;;;;;5082770;28;20112;-78
2024/02/04 03:49:56;;;;;;;3.63;2.75;;;;;;;;;;5082948;28;20107;-78
2024/02/04 03:52:22;;;;;;;3.33;2.38;;;;;;;;;;5079209;28;20068;-77
2024/02/04 03:54:48;;;;;;;2.42;2.10;;;;;;;;;;5079245;28;20605;-77
2024/02/04 03:57:14;;;;;;;2.42;2.22;;;;;;;;;;5080016;28;20178;-77
2024/02/04 03:59:40;;;;;;;2.03;1.80;;;;;;;;;;5081673;28;20491;-76
2024/02/04 04:02:06;;;;;;;2.33;2.13;;;;;;;;;;5082033;28;20479;-78
2024/02/04 04:04:32;;;;;;;1.92;1.73;;;;;;;;;;5079490;28;20036;-78
2024/02/04 04:06:58;;;;;;;2.55;2.05;;;;;;;;;;5081197;28;20031;-78
2024/02/04 04:09:24;;;;;;;4.03;2.25;;;;;;;;;;5080376;28;20032;-77
2024/02/04 04:11:50;;;;;;;1.80;1.65;;;;;;;;;;5082156;28;20132;-79
2024/02/04 04:14:16;;;;;;;3.03;2.00;;;;;;;;;;5096760;28;20027;-78
2024/02/04 04:16:43;;;;;;;2.05;1.85;;;;;;;;;;5079908;28;20040;-77
2024/02/04 04:19:09;;;;;;;2.33;1.98;;;;;;;;;;5073015;28;20043;-77
2024/02/04 04:21:37;;;;;;;2.35;1.98;;;;;;;;;;5080394;28;20021;-78
2024/02/04 04:24:03;;;;;;;1.85;1.58;;;;;;;;;;5079779;28;20043;-79
2024/02/04 04:26:29;;;;;;;2.15;1.95;;;;;;;;;;5084943;28;20039;-78
2024/02/04 04:28:55;;;;;;;3.22;2.35;;;;;;;;;;5088556;28;20029;-77
2024/02/04 04:31:21;;;;;;;1.80;1.70;;;;;;;;;;5088191;28;20035;-77
2024/02/04 04:33:47;;;;;;;1.52;1.42;;;;;;;;;;5086331;28;20029;-77
2024/02/04 04:36:13;;;;;;;1.77;1.67;;;;;;;;;;5076883;28;20028;-78
2024/02/04 04:38:39;;;;;;;1.83;1.65;;;;;;;;;;5079642;28;20055;-77
2024/02/04 04:41:05;;;;;;;1.75;1.58;;;;;;;;;;5066480;28;20017;-77
2024/02/04 04:43:31;;;;;;;1.65;1.50;;;;;;;;;;5079276;28;20043;-78
2024/02/04 04:45:58;;;;;;;1.52;1.42;;;;;;;;;;5090280;28;20031;-78
2024/02/04 04:48:24;;;;;;;1.95;1.75;;;;;;;;;;5080675;28;20047;-77
2024/02/04 04:50:50;;;;;;;3.63;2.03;;;;;;;;;;5081876;28;20056;-77
2024/02/04 04:53:16;;;;;;;2.58;1.80;;;;;;;;;;5077602;28;20016;-77
2024/02/04 04:55:43;;;;;;;2.67;1.60;;;;;;;;;;5078742;28;20128;-77
2024/02/04 04:58:09;;;;;;;2.20;2.00;;;;;;;;;;5080698;28;20031;-78
2024/02/04 05:00:35;;;;;;;2.95;1.42;;;;;;;;;;5079101;28;20021;-77
2024/02/04 05:03:01;;;;;;;1.50;1.30;;;;;;;;;;5081241;28;20020;-76
2024/02/04 05:05:27;;;;;;;3.30;1.65;;;;;;;;;;5081244;28;20024;-77
2024/02/04 05:07:53;;;;;;;2.90;1.60;;;;;;;;;;5078892;28;20533;-76
2024/02/04 05:10:19;;;;;;;2.22;0.93;;;;;;;;;;5086686;28;20017;-81
2024/02/04 05:12:45;;;;;;;1.40;1.30;;;;;;;;;;5091716;28;20017;-79
2024/02/04 05:15:11;;;;;;;1.80;1.20;;;;;;;;;;5089829;28;20467;-79
2024/02/04 05:17:37;;;;;;;2.00;1.20;;;;;;;;;;5085122;28;20048;-79
2024/02/04 05:20:04;;;;;;;1.23;1.13;;;;;;;;;;5076995;28;20638;-79
2024/02/04 05:22:30;;;;;;;2.35;1.20;;;;;;;;;;5076252;28;20456;-79
2024/02/04 05:24:56;;;;;;;1.83;1.33;;;;;;;;;;5079967;28;20112;-79
2024/02/04 05:27:22;;;;;;;0.77;0.70;;;;;;;;;;5079960;28;20043;-79
2024/02/04 05:29:48;;;;;;;1.25;1.15;;;;;;;;;;5073141;28;20048;-78
2024/02/04 05:32:15;;;;;;;1.80;1.17;;;;;;;;;;5081048;28;20040;-78
2024/02/04 05:34:41;;;;;;;1.67;1.23;;;;;;;;;;5078902;28;20395;-79
2024/02/04 05:37:07;;;;;;;1.52;1.30;;;;;;;;;;5076619;28;20110;-79
2024/02/04 05:39:33;;;;;;;2.00;1.33;;;;;;;;;;5068102;28;20021;-79
2024/02/04 05:41:59;;;;;;;1.27;1.15;;;;;;;;;;5085742;28;20110;-78
2024/02/04 05:44:25;;;;;;;1.73;1.23;;;;;;;;;;5102125;28;20042;-80
2024/02/04 05:46:51;;;;;;;0.90;0.90;;;;;;;;;;5092151;28;20048;-78
2024/02/04 05:49:17;;;;;;;1.77;1.48;;;;;;;;;;5095593;28;20040;-77
2024/02/04 05:51:44;;;;;;;1.15;1.05;;;;;;;;;;5096325;28;20028;-77
2024/02/04 05:54:10;;;;;;;1.98;1.35;;;;;;;;;;5095897;28;20074;-77
2024/02/04 05:56:36;;;;;;;1.88;1.20;;;;;;;;;;5092243;28;20474;-78
2024/02/04 05:59:02;;;;;;;1.67;1.15;;;;;;;;;;5080920;28;20013;-78
2024/02/04 06:01:28;;;;;;;3.85;1.80;;;;;;;;;;5084078;28;20024;-77
2024/02/04 06:03:54;;;;;;;1.60;1.50;;;;;;;;;;5073506;28;20082;-77
2024/02/04 06:06:20;;;;;;;1.60;1.17;;;;;;;;;;5074475;28;20375;-77
2024/02/04 06:08:47;;;;;;;5.45;1.70;;;;;;;;;;5075522;28;20024;-77
2024/02/04 06:11:13;;;;;;;2.10;1.42;;;;;;;;;;5075322;28;20024;-77
2024/02/04 06:13:41;;;;;;;2.00;1.60;;;;;;;;;;5071603;28;20025;-77
2024/02/04 06:16:07;;;;;;;2.65;1.70;;;;;;;;;;5066793;28;20109;-77
2024/02/04 06:18:33;;;;;;;2.10;1.80;;;;;;;;;;5076216;28;20082;-77
2024/02/04 06:20:59;;;;;;;2.92;1.95;;;;;;;;;;5066439;28;20444;-77
2024/02/04 06:23:25;;;;;;;2.28;1.80;;;;;;;;;;5072786;28;20070;-78
2024/02/04 06:25:51;;;;;;;2.85;1.70;;;;;;;;;;5074887;28;20028;-77
2024/02/04 06:28:17;;;;;;;3.10;2.25;;;;;;;;;;5073780;28;20028;-77
2024/02/04 06:30:43;;;;;;;2.88;1.98;;;;;;;;;;5081266;28;20024;-77
2024/02/04 06:33:09;;;;;;;2.38;1.70;;;;;;;;;;5085936;28;20033;-77
2024/02/04 06:35:35;;;;;;;2.22;1.90;;;;;;;;;;5089491;28;20043;-78
2024/02/04 06:38:02;;;;;;;1.77;1.67;;;;;;;;;;5092190;28;20068;-77
2024/02/04 06:40:28;;;;;;;2.20;1.80;;;;;;;;;;5080845;28;20021;-77
2024/02/04 06:42:54;;;;;;;1.70;1.60;;;;;;;;;;5084955;28;20077;-77
2024/02/04 06:45:20;;;;;;;1.90;1.73;;;;;;;;;;5079024;28;20094;-77
2024/02/04 06:47:46;;;;;;;3.60;2.25;;;;;;;;;;5072379;28;20025;-78
2024/02/04 06:50:13;;;;;;;3.20;2.05;;;;;;;;;;5086263;28;20025;-78
2024/02/04 06:52:43;;;;;;;2.50;1.50;;;;;;;;;;5085696;28;20762;-77
2024/02/04 06:55:09;;;;;;;3.55;1.80;;;;;;;;;;5068727;28;20030;-77
2024/02/04 06:57:35;;;;;;;5.07;2.33;;;;;;;;;;5074641;28;20037;-77
2024/02/04 07:00:05;;;;;;;2.72;2.00;;;;;;;;;;5077489;28;20024;-78
2024/02/04 07:02:31;;;;;;;4.32;2.58;;;;;;;;;;5079282;28;20074;-78
2024/02/04 07:04:57;;;;;;;4.85;2.85;;;;;;;;;;5078759;28;20024;-78
2024/02/04 07:07:23;;;;;;;3.45;2.65;;;;;;;;;;5077881;28;20043;-77
2024/02/04 07:09:49;;;;;;;5.97;2.30;;;;;;;;;;5085627;28;20097;-77
2024/02/04 07:12:15;;;;;;;4.45;3.15;;;;;;;;;;5067934;28;20025;-78
2024/02/04 07:14:41;;;;;;;5.78;3.72;;;;;;;;;;5072298;28;20024;-77
2024/02/04 07:17:08;;;;;;;3.95;2.67;;;;;;;;;;5073123;28;20071;-77
2024/02/04 07:19:35;;;;;;;5.07;3.33;;;;;;;;;;5073479;28;20556;-77
2024/02/04 07:22:01;;;;;;;5.45;3.08;;;;;;;;;;5077827;28;20028;-78
2024/02/04 07:24:27;;;;;;;4.38;2.80;;;;;;;;;;5076857;28;20021;-78
2024/02/04 07:26:53;;;;;;;5.55;3.65;;;;;;;;;;5072458;28;20036;-77
2024/02/04 07:29:19;;;;;;;9.52;3.58;;;;;;;;;;5073506;28;20028;-78
2024/02/04 07:31:45;;;;;;;6.97;4.05;;;;;;;;;;5073424;28;20020;-76
2024/02/04 07:34:11;;;;;;;4.90;3.67;;;;;;;;;;5079568;28;20048;-77
2024/02/04 07:36:37;;;;;;;7.20;3.47;;;;;;;;;;5076874;28;20029;-77
2024/02/04 07:39:04;;;;;;;10.15;4.70;;;;;;;;;;5074269;28;20029;-77
2024/02/04 07:41:34;;;;;;;6.00;3.60;;;;;;;;;;5064758;28;20070;-77
2024/02/04 07:44:00;;;;;;;8.75;3.97;;;;;;;;;;5071542;28;20048;-77
2024/02/04 07:46:26;;;;;;;7.50;3.67;;;;;;;;;;5086876;28;20024;-77
2024/02/04 07:48:52;;;;;;;4.28;3.53;;;;;;;;;;5079436;28;20033;-77
2024/02/04 07:51:18;;;;;;;5.03;3.38;;;;;;;;;;5083030;28;20049;-78
2024/02/04 07:53:44;;;;;;;5.03;3.22;;;;;;;;;;5075330;28;20502;-77
2024/02/04 07:56:10;;;;;;;5.63;3.53;;;;;;;;;;5074752;28;20071;-77
2024/02/04 07:58:36;;;;;;;6.60;3.88;;;;;;;;;;5088869;28;20021;-77
2024/02/04 08:01:03;;;;;;;7.18;4.20;;;;;;;;;;5084184;28;20054;-76
2024/02/04 08:03:29;;;;;;;4.43;3.13;;;;;;;;;;5081100;28;20020;-77
2024/02/04 08:05:55;;;;;;;7.72;3.90;;;;;;;;;;5082459;28;20131;-77
2024/02/04 08:08:21;;;;;;;7.80;3.75;;;;;;;;;;5074533;28;20055;-77
2024/02/04 08:10:47;;;;;;;7.97;3.22;;;;;;;;;;5081835;28;20036;-77
2024/02/04 08:13:14;;;;;;;3.50;2.40;;;;;;;;;;5082851;28;20029;-77
2024/02/04 08:15:40;;;;;;;5.82;2.95;;;;;;;;;;5073160;28;20024;-77
2024/02/04 08:18:06;;;;;;;7.50;3.40;;;;;;;;;;5077149;28;20115;-76
2024/02/04 08:20:32;;;;;;;7.00;3.47;;;;;;;;;;5077369;28;20028;-78
2024/02/04 08:22:58;;;;;;;7.07;2.78;;;;;;;;;;5081085;28;20040;-78
2024/02/04 08:25:24;;;;;;;8.80;2.90;;;;;;;;;;5077953;28;20032;-78
2024/02/04 08:27:50;;;;;;;5.25;2.33;;;;;;;;;;5078507;28;20082;-78
2024/02/04 08:30:18;;;;;;;3.25;2.17;;;;;;;;;;5083538;28;20027;-77
2024/02/04 08:32:45;;;;;;;3.58;2.20;;;;;;;;;;5084800;28;20021;-78
2024/02/04 08:35:11;;;;;;;5.07;2.83;;;;;;;;;;5082781;28;20078;-78
2024/02/04 08:37:37;;;;;;;6.80;3.40;;;;;;;;;;5082050;28;20053;-77
2024/02/04 08:40:04;;;;;;;6.82;3.00;;;;;;;;;;5069638;28;20044;-77
2024/02/04 08:42:30;;;;;;;8.95;3.38;;;;;;;;;;5080730;28;20481;-78
2024/02/04 08:44:56;;;;;;;6.22;2.85;;;;;;;;;;5088402;28;20036;-78
2024/02/04 08:47:22;;;;;;;4.22;2.92;;;;;;;;;;5083684;28;20054;-78
2024/02/04 08:49:48;;;;;;;8.40;2.80;;;;;;;;;;5090180;28;20337;-77
2024/02/04 08:52:14;;;;;;;3.83;2.28;;;;;;;;;;5092323;28;20009;-78
2024/02/04 08:54:40;;;;;;;4.13;2.25;;;;;;;;;;5091454;28;20029;-78
2024/02/04 08:57:06;;;;;;;5.32;2.65;;;;;;;;;;5083349;28;20048;-77
2024/02/04 08:59:33;;;;;;;5.32;2.55;;;;;;;;;;5083670;28;20070;-77
2024/02/04 09:01:59;;;;;;;4.40;2.55;;;;;;;;;;5093402;28;20043;-77
2024/02/04 09:04:25;;;;;;;4.63;2.55;;;;;;;;;;5087914;28;20483;-78
2024/02/04 09:06:51;;;;;;;4.10;2.88;;;;;;;;;;5095578;28;20071;-78
2024/02/04 09:09:17;;;;;;;10.25;3.03;;;;;;;;;;5082887;28;20032;-78
2024/02/04 09:11:43;;;;;;;8.35;2.40;;;;;;;;;;5078424;28;20568;-77
2024/02/04 09:14:09;;;;;;;3.17;2.15;;;;;;;;;;5083294;28;20129;-78
2024/02/04 09:16:37;;;;;;;8.65;3.15;;;;;;;;;;5080403;28;20295;-78
2024/02/04 09:19:04;;;;;;;6.28;3.55;;;;;;;;;;5077809;28;20033;-77
2024/02/04 09:21:30;;;;;;;8.75;3.22;;;;;;;;;;5076884;28;20028;-77
2024/02/04 09:23:57;;;;;;;8.98;3.42;;;;;;;;;;5077120;28;20024;-77
2024/02/04 09:26:23;;;;;;;9.73;3.65;;;;;;;;;;5083088;28;20097;-78
2024/02/04 09:28:49;;;;;;;7.93;2.78;;;;;;;;;;5075547;28;20049;-78
2024/02/04 09:31:16;;;;;;;7.57;2.67;;;;;;;;;;5075149;28;20073;-77
2024/02/04 09:33:42;;;;;;;4.88;1.95;;;;;;;;;;5075758;28;20025;-77
2024/02/04 09:36:08;;;;;;;5.93;2.65;;;;;;;;;;5068169;28;20054;-76
2024/02/04 09:38:34;;;;;;;11.18;2.75;;;;;;;;;;5080360;28;20372;-78
2024/02/04 09:41:03;;;;;;;8.00;2.50;;;;;;;;;;5080069;28;20025;-78
2024/02/04 09:43:30;;;;;;;6.78;2.25;;;;;;;;;;5081974;28;20021;-78
2024/02/04 09:45:56;;;;;;;8.43;2.95;;;;;;;;;;5077149;28;20411;-77
2024/02/04 09:48:23;;;;;;;5.43;2.35;;;;;;;;;;5080273;28;20028;-77
2024/02/04 09:50:51;;;;;;;9.02;3.63;;;;;;;;;;5078487;28;20028;-78
2024/02/04 09:53:22;;;;;;;6.18;3.65;;;;;;;;;;5079886;28;20087;-77
2024/02/04 09:55:49;;;;;;;11.90;4.30;;;;;;;;;;5076293;28;20020;-77
2024/02/04 09:58:15;;;;;;;12.32;4.93;;;;;;;;;;5075947;28;20311;-77
2024/02/04 10:00:44;;;;;;;16.25;7.03;;;;;;;;;;5078764;28;20106;-78
2024/02/04 10:03:10;;;;;;;7.05;4.60;;;;;;;;;;5068172;28;20028;-78
2024/02/04 10:05:36;;;;;;;10.23;3.92;;;;;;;;;;5085474;28;20028;-78
2024/02/04 10:08:02;;;;;;;7.47;3.33;;;;;;;;;;5096835;28;20050;-78
2024/02/04 10:10:30;;;;;;;5.50;3.22;;;;;;;;;;5092680;28;20033;-78
2024/02/04 10:12:56;;;;;;;6.13;3.13;;;;;;;;;;5090522;28;20027;-78
2024/02/04 10:15:22;;;;;;;10.88;3.53;;;;;;;;;;5086537;28;20024;-80
2024/02/04 10:17:48;;;;;;;6.38;3.28;;;;;;;;;;5072500;28;20035;-77
2024/02/04 10:20:14;;;;;;;6.95;3.13;;;;;;;;;;5075708;28;20025;-77
2024/02/04 10:22:40;;;;;;;8.95;3.10;;;;;;;;;;5077770;28;20025;-78
2024/02/04 10:25:07;;;;;;;4.10;3.03;;;;;;;;;;5075877;28;20036;-78
2024/02/04 10:27:33;;;;;;;5.57;3.25;;;;;;;;;;5078332;28;20025;-78
2024/02/04 10:30:00;;;;;;;7.28;3.90;;;;;;;;;;5073873;28;20034;-78
2024/02/04 10:32:26;;;;;;;6.18;2.50;;;;;;;;;;5077200;28;20027;-78
2024/02/04 10:34:52;;;;;;;4.43;2.97;;;;;;;;;;5077871;28;20025;-78
2024/02/04 10:37:18;;;;;;;4.60;2.10;;;;;;;;;;5085030;28;20236;-77
2024/02/04 10:39:44;;;;;;;2.67;2.30;;;;;;;;;;5086985;28;20033;-77
2024/02/04 10:42:13;;;;;;;5.88;3.08;;;;;;;;;;5093769;28;20020;-78
2024/02/04 10:44:41;;;;;;;5.85;2.70;;;;;;;;;;5092632;28;20028;-78
2024/02/04 10:47:10;;;;;;;4.15;2.90;;;;;;;;;;5091335;28;20029;-78
2024/02/04 10:49:38;;;;;;;4.50;2.88;;;;;;;;;;5090452;28;20028;-78
2024/02/04 10:52:07;;;;;;;7.63;2.75;;;;;;;;;;5088618;28;20048;-77
2024/02/04 10:54:36;;;;;;;8.63;3.10;;;;;;;;;;5089279;28;20028;-77
2024/02/04 10:57:06;;;;;;;4.13;2.75;;;;;;;;;;5086031;28;20040;-78
2024/02/04 10:59:33;;;;;;;5.00;2.50;;;;;;;;;;5087969;28;20479;-77
2024/02/04 11:02:00;;;;;;;4.60;2.55;;;;;;;;;;5089558;28;20404;-78
2024/02/04 11:04:28;;;;;;;5.25;2.05;;;;;;;;;;5083955;28;20021;-78
2024/02/04 11:06:55;;;;;;;3.35;1.77;;;;;;;;;;5085970;28;20056;-78
2024/02/04 11:09:22;;;;;;;3.83;2.20;;;;;;;;;;5084570;28;20024;-77
2024/02/04 11:11:48;;;;;;;3.50;2.30;;;;;;;;;;5075828;28;20020;-78
2024/02/04 11:14:17;;;;;;;3.38;1.63;;;;;;;;;;5083892;28;20017;-78
2024/02/04 11:16:46;;;;;;;2.60;1.70;;;;;;;;;;5088461;28;20020;-78
2024/02/04 11:19:19;;;;;;;7.70;2.63;;;;;;;;;;5089155;28;20021;-77
2024/02/04 11:21:58;;;;;;;4.22;1.60;;;;;;;;;;5086696;28;20078;-79
2024/02/04 11:24:38;;;;;;;2.50;1.50;;;;;;;;;;5078760;28;20045;-79
2024/02/04 11:27:04;;;;;;;2.58;1.70;;;;;;;;;;5084886;28;20025;-77
2024/02/04 11:29:31;;;;;;;1.90;1.40;;;;;;;;;;5086464;28;20020;-78
2024/02/04 11:31:57;;;;;;;4.88;2.28;;;;;;;;;;5087517;28;20025;-78
2024/02/04 11:34:24;;;;;;;4.20;2.33;;;;;;;;;;5085713;28;20467;-77
2024/02/04 11:36:50;;;;;;;2.63;1.88;;;;;;;;;;5083493;28;20045;-77
2024/02/04 11:39:21;;;;;;;5.63;1.70;;;;;;;;;;5084705;28;20025;-78
2024/02/04 11:41:50;;;;;;;6.10;2.53;;;;;;;;;;5088735;28;20066;-78
2024/02/04 11:44:22;;;;;;;2.97;1.40;;;;;;;;;;5082701;28;20060;-77
2024/02/04 11:46:48;;;;;;;3.38;1.65;;;;;;;;;;5084622;28;20380;-75
2024/02/04 11:49:17;;;;;;;2.30;1.42;;;;;;;;;;5079664;28;20031;-76
2024/02/04 11:51:53;;;;;;;1.38;1.02;;;;;;;;;;5088164;28;20048;-77
2024/02/04 11:54:21;;;;;;;1.50;0.95;;;;;;;;;;5090335;28;20016;-77
2024/02/04 11:56:56;;;;;;;4.47;1.15;;;;;;;;;;5092544;28;20020;-77
2024/02/04 11:59:23;;;;;;;2.60;0.85;;;;;;;;;;5091072;28;20023;-77
2024/02/04 12:01:50;;;;;;;4.03;2.22;;;;;;;;;;5092365;28;20021;-77
2024/02/04 12:04:17;;;;;;;1.52;0.98;;;;;;;;;;5091830;28;20031;-78
2024/02/04 12:06:43;;;;;;;6.30;0.95;;;;;;;;;;5091296;28;20025;-78
2024/02/04 12:09:10;;;;;;;2.75;1.35;;;;;;;;;;5089979;28;20475;-77
2024/02/04 12:11:40;;;;;;;1.27;0.82;;;;;;;;;;5090568;28;20368;-78
2024/02/04 12:14:06;;;;;;;2.40;1.33;;;;;;;;;;5093508;28;20016;-77
2024/02/04 12:16:34;;;;;;;1.95;1.10;;;;;;;;;;5092054;28;20024;-77
2024/02/04 12:19:01;;;;;;;3.03;1.05;;;;;;;;;;5091946;28;20025;-76
2024/02/04 12:21:27;;;;;;;4.43;1.50;;;;;;;;;;5087946;28;20050;-77
2024/02/04 12:23:53;;;;;;;2.67;1.00;;;;;;;;;;5090908;28;20048;-77
2024/02/04 12:26:19;;;;;;;1.65;0.90;;;;;;;;;;5093378;28;20033;-78
2024/02/04 12:28:45;;;;;;;4.60;1.20;;;;;;;;;;5077951;28;20055;-77
2024/02/04 12:31:21;;;;;;;1.33;1.05;;;;;;;;;;5072363;28;20020;-77
2024/02/04 12:33:54;;;;;;;2.97;0.90;;;;;;;;;;5091839;28;20028;-78
2024/02/04 12:36:21;;;;;;;3.50;0.90;;;;;;;;;;5094342;28;20087;-78
2024/02/04 12:38:57;;;;;;;1.80;0.88;;;;;;;;;;5091164;28;20028;-78
2024/02/04 12:41:24;;;;;;;2.53;1.20;;;;;;;;;;5088356;28;20545;-77
2024/02/04 12:43:54;;;;;;;8.95;3.13;;;;;;;;;;5100177;28;20044;-79
2024/02/04 12:46:20;;;;;;;8.13;3.05;;;;;;;;;;5039756;28;1515496;-77
2024/02/04 12:48:51;;;;;;;10.52;3.63;;;;;;;;;;5089159;28;20032;-77
2024/02/04 12:51:27;;;;;;;11.02;3.53;;;;;;;;;;5086061;28;20072;-76
2024/02/04 12:54:13;;;;;;;6.70;2.25;;;;;;;;;;5088302;28;20040;-78
2024/02/04 12:56:46;;;;;;;6.93;1.73;;;;;;;;;;5089875;28;20037;-79
2024/02/04 12:59:24;;;;;;;3.30;1.58;;;;;;;;;;5090203;28;20025;-77
2024/02/04 13:01:52;;;;;;;1.55;0.95;;;;;;;;;;5079972;28;20021;-77
2024/02/04 13:04:18;;;;;;;3.63;1.92;;;;;;;;;;5080810;28;20131;-77
2024/02/04 13:06:44;;;;;;;2.97;1.00;;;;;;;;;;5096831;28;20025;-77
2024/02/04 13:09:11;;;;;;;5.50;1.38;;;;;;;;;;5097513;28;20063;-77
2024/02/04 13:11:37;;;;;;;4.57;1.20;;;;;;;;;;5089636;28;20028;-79
2024/02/04 13:14:03;;;;;;;3.63;0.90;;;;;;;;;;5100132;28;20028;-77
2024/02/04 13:16:30;;;;;;;2.92;0.80;;;;;;;;;;5092307;28;20112;-78
2024/02/04 13:18:56;;;;;;;2.35;1.20;;;;;;;;;;5091458;28;20024;-76
2024/02/04 13:21:22;;;;;;;1.58;1.45;;;;;;;;;;5088666;28;20031;-79
2024/02/04 13:23:51;;;;;;;3.17;1.10;;;;;;;;;;5091014;28;20035;-80
2024/02/04 13:26:17;;;;;;;3.80;1.30;;;;;;;;;;5094169;28;20035;-79
2024/02/04 13:28:44;;;;;;;1.52;0.82;;;;;;;;;;5087145;28;20028;-78
2024/02/04 13:31:10;;;;;;;2.25;1.48;;;;;;;;;;5100148;28;20029;-78
2024/02/04 13:33:36;;;;;;;7.60;2.60;;;;;;;;;;5090944;28;20024;-79
2024/02/04 13:36:02;;;;;;;5.57;3.03;;;;;;;;;;5090612;28;20090;-80
2024/02/04 13:38:29;;;;;;;5.70;3.30;;;;;;;;;;5088072;28;20107;-81
2024/02/04 13:40:55;;;;;;;6.03;3.22;;;;;;;;;;5080618;28;20024;-79
2024/02/04 13:43:21;;;;;;;9.38;4.93;;;;;;;;;;5085377;28;20074;-78
2024/02/04 13:45:47;;;;;;;5.97;3.20;;;;;;;;;;5108273;28;20023;-77
2024/02/04 13:48:13;;;;;;;6.20;3.03;;;;;;;;;;5094682;28;20099;-79
2024/02/04 13:50:39;;;;;;;2.72;1.80;;;;;;;;;;5097670;28;20028;-79
2024/02/04 13:53:06;;;;;;;2.70;1.50;;;;;;;;;;5094504;28;20032;-79
2024/02/04 13:55:32;;;;;;;2.83;1.48;;;;;;;;;;5099788;28;20020;-78
2024/02/04 13:57:59;;;;;;;2.97;1.70;;;;;;;;;;5096196;28;20016;-78
2024/02/04 14:00:26;;;;;;;2.70;1.70;;;;;;;;;;5085453;28;20024;-78
2024/02/04 14:02:52;;;;;;;3.08;1.50;;;;;;;;;;5091988;28;20027;-80
2024/02/04 14:05:18;;;;;;;3.33;1.13;;;;;;;;;;5093795;28;20051;-78
2024/02/04 14:07:45;;;;;;;4.55;2.53;;;;;;;;;;5102585;27;20031;-78
2024/02/04 14:10:12;;;;;;;5.70;2.53;;;;;;;;;;5098781;28;20058;-79
2024/02/04 14:12:46;;;;;;;5.88;3.35;;;;;;;;;;5104876;27;20022;-79
2024/02/04 14:15:14;;;;;;;5.82;2.63;;;;;;;;;;5105904;27;20019;-79
2024/02/04 14:17:44;;;;;;;7.22;3.03;;;;;;;;;;5097237;28;20124;-79
2024/02/04 14:20:10;;;;;;;9.35;4.85;;;;;;;;;;5092749;28;20016;-79
2024/02/04 14:22:36;;;;;;;5.97;3.30;;;;;;;;;;5093809;28;20036;-79
2024/02/04 14:25:02;;;;;;;4.05;2.92;;;;;;;;;;5091461;28;20025;-80
2024/02/04 14:27:29;;;;;;;13.82;5.65;;;;;;;;;;5091886;28;20024;-79
2024/02/04 14:29:55;;;;;;;8.65;4.20;;;;;;;;;;5079743;28;20017;-78
2024/02/04 14:32:21;;;;;;;7.60;3.13;;;;;;;;;;5094198;28;20080;-79
2024/02/04 14:34:48;;;;;;;6.85;3.17;;;;;;;;;;5085378;28;20035;-79
2024/02/04 14:37:14;;;;;;;5.18;2.22;;;;;;;;;;5083205;28;20103;-78
2024/02/04 14:39:41;;;;;;;4.68;2.53;;;;;;;;;;5085423;28;20102;-77
2024/02/04 14:42:09;;;;;;;7.20;1.98;;;;;;;;;;5092243;28;20031;-78